Time;durP1;ratioP1;P1;durP2;ratioP2;P2;SDS_P1;SDS_P2;PMS_P1;PMS_P2;Temp;Humidity;BMP_temperature;BMP_pressure;BME280_temperature;BME280_humidity;BME280_pressure;Samples;Min_cycle;Max_cycle;Signal;HPM_P1;HPM_P2
2021/12/01 00:00:58;;;;;;;14.53;10.68;;;;;;;1.39;74.80;97716.27;1766395;81;21085;-78
2021/12/01 00:03:25;;;;;;;15.48;11.05;;;;;;;1.35;74.91;97715.92;1750482;81;21125;-80
2021/12/01 00:05:54;;;;;;;16.17;12.68;;;;;;;1.33;75.02;97714.05;1768775;81;21629;-83
2021/12/01 00:08:20;;;;;;;16.65;12.18;;;;;;;1.30;75.20;97713.19;1768982;81;21069;-80
2021/12/01 00:10:47;;;;;;;15.08;10.93;;;;;;;1.25;75.26;97706.48;1716494;81;21086;-77
2021/12/01 00:13:18;;;;;;;15.40;10.58;;;;;;;1.24;75.41;97707.02;1754947;81;22053;-81
2021/12/01 00:15:47;;;;;;;14.60;11.38;;;;;;;1.24;75.43;97712.31;1766993;81;21017;-78
2021/12/01 00:18:14;;;;;;;17.90;13.08;;;;;;;1.25;75.44;97713.91;1768931;81;20970;-74
2021/12/01 00:20:41;;;;;;;16.32;11.75;;;;;;;1.27;75.46;97707.86;1742814;81;21033;-76
2021/12/01 00:23:09;;;;;;;14.55;11.70;;;;;;;1.29;75.43;97704.47;1746328;80;21533;-76
2021/12/01 00:25:39;;;;;;;16.07;13.35;;;;;;;1.28;75.43;97706.02;1729634;80;21500;-77
2021/12/01 00:28:05;;;;;;;14.45;11.18;;;;;;;1.25;75.56;97703.31;1716934;80;21044;-76
2021/12/01 00:30:33;;;;;;;20.23;13.00;;;;;;;1.24;75.60;97699.59;1738963;80;21544;-72
2021/12/01 00:33:00;;;;;;;18.00;12.23;;;;;;;1.23;75.66;97692.17;1652053;84;21091;-71
2021/12/01 00:35:27;;;;;;;14.45;11.68;;;;;;;1.22;75.68;97692.41;1696200;83;20973;-71
2021/12/01 00:37:55;;;;;;;17.02;12.95;;;;;;;1.20;75.68;97679.39;1728937;83;21229;-72
2021/12/01 00:40:24;;;;;;;17.60;13.45;;;;;;;1.19;75.77;97675.69;1742275;80;21470;-80
2021/12/01 00:42:51;;;;;;;16.87;13.15;;;;;;;1.18;75.84;97679.37;1729503;80;20945;-73
2021/12/01 00:45:22;;;;;;;17.30;13.62;;;;;;;1.16;75.86;97673.50;1712088;83;20976;-72
2021/12/01 00:47:53;;;;;;;18.00;13.78;;;;;;;1.18;75.88;97690.77;1757890;80;21084;-73
2021/12/01 00:50:33;;;;;;;18.23;14.00;;;;;;;1.14;75.88;97686.19;1773827;80;24791;-74
2021/12/01 00:53:04;;;;;;;17.67;12.63;;;;;;;1.16;76.02;97685.41;1754596;80;21023;-80
2021/12/01 00:55:32;;;;;;;12.95;11.25;;;;;;;1.21;76.08;97682.85;1728586;80;21000;-90
2021/12/01 00:58:01;;;;;;;18.67;12.90;;;;;;;1.25;76.09;97676.03;1745475;80;20972;-86
2021/12/01 01:00:28;;;;;;;14.53;11.55;;;;;;;1.25;76.12;97680.81;1683668;84;20930;-87
2021/12/01 01:02:58;;;;;;;16.65;11.20;;;;;;;1.25;76.38;97677.35;1704526;83;21512;-88
2021/12/01 01:05:26;;;;;;;14.73;12.37;;;;;;;1.21;76.93;97682.33;1711157;83;21017;-89
2021/12/01 01:07:53;;;;;;;12.10;9.65;;;;;;;1.19;77.41;97680.46;1718402;83;21025;-88
2021/12/01 01:10:31;;;;;;;16.02;11.75;;;;;;;1.20;77.90;97674.66;1713791;83;21044;-81
2021/12/01 01:18:34;;;;;;;14.00;10.78;;;;;;;1.07;79.66;97658.53;1706979;83;21501;-84
2021/12/01 01:21:01;;;;;;;12.78;9.55;;;;;;;1.04;80.55;97666.96;1713467;83;21062;-85
2021/12/01 01:23:29;;;;;;;11.97;9.20;;;;;;;0.99;81.51;97654.16;1694002;83;21033;-84
2021/12/01 01:25:57;;;;;;;11.47;9.63;;;;;;;0.88;82.89;97652.66;1722786;81;21057;-85
2021/12/01 01:28:26;;;;;;;13.70;10.15;;;;;;;0.84;83.27;97650.20;1766551;80;21052;-84
2021/12/01 01:30:53;;;;;;;16.27;9.95;;;;;;;0.85;83.70;97651.02;1751196;81;21499;-85
2021/12/01 01:33:21;;;;;;;12.75;10.75;;;;;;;0.82;84.07;97639.56;1745539;81;20975;-86
2021/12/01 01:35:48;;;;;;;16.87;10.87;;;;;;;0.84;84.30;97638.81;1713179;81;21102;-82
2021/12/01 01:38:15;;;;;;;14.50;10.97;;;;;;;0.85;84.61;97632.48;1755214;81;21071;-86
2021/12/01 01:40:42;;;;;;;15.00;11.60;;;;;;;0.86;84.92;97628.27;1761408;81;21106;-86
2021/12/01 01:43:10;;;;;;;16.73;12.80;;;;;;;0.87;85.18;97625.91;1768189;81;20926;-87
2021/12/01 01:45:37;;;;;;;17.20;11.73;;;;;;;0.91;85.45;97617.51;1769136;80;21018;-85
2021/12/01 01:48:08;;;;;;;15.73;13.77;;;;;;;0.92;85.59;97617.25;1768994;81;21081;-81
2021/12/01 01:50:40;;;;;;;15.50;13.17;;;;;;;0.92;85.72;97606.67;1721723;81;21141;-86
2021/12/01 01:53:12;;;;;;;15.70;12.03;;;;;;;0.95;85.77;97606.72;1754394;81;21585;-86
2021/12/01 01:55:42;;;;;;;22.45;16.50;;;;;;;0.91;86.23;97601.12;1737041;82;20966;-84
2021/12/01 01:58:09;;;;;;;12.77;11.43;;;;;;;0.86;86.25;97601.03;1711416;81;20971;-76
2021/12/01 02:00:45;;;;;;;15.43;11.97;;;;;;;0.74;87.37;97600.27;1735308;82;21035;-75
2021/12/01 02:03:05;;;;;;;18.90;14.83;;;;;;;0.68;87.23;97591.96;1751602;81;21033;-75
2021/12/01 02:05:37;;;;;;;16.48;10.93;;;;;;;0.64;87.88;97593.48;1768703;81;21987;-74
2021/12/01 02:08:04;;;;;;;14.53;11.90;;;;;;;0.61;88.01;97596.61;1766676;80;20990;-73
2021/12/01 02:10:32;;;;;;;13.03;11.27;;;;;;;0.62;88.09;97596.38;1743535;81;21018;-73
2021/12/01 02:12:59;;;;;;;12.40;10.53;;;;;;;0.67;88.14;97594.34;1769057;81;21018;-73
2021/12/01 02:15:28;;;;;;;14.40;10.63;;;;;;;0.61;88.28;97593.45;1769328;81;20990;-74
2021/12/01 02:17:55;;;;;;;12.53;10.33;;;;;;;0.60;88.33;97593.16;1766737;80;21120;-83
2021/12/01 02:20:22;;;;;;;24.30;17.80;;;;;;;0.60;88.57;97587.88;1728553;81;20908;-76
2021/12/01 02:22:49;;;;;;;13.50;10.47;;;;;;;0.59;88.77;97584.94;1758003;80;20975;-76
2021/12/01 02:25:16;;;;;;;14.33;11.00;;;;;;;0.61;88.74;97592.64;1760011;80;21096;-77
2021/12/01 02:27:44;;;;;;;11.67;10.40;;;;;;;0.55;89.09;97589.62;1774692;80;21115;-76
2021/12/01 02:30:11;;;;;;;14.17;10.13;;;;;;;0.50;89.13;97589.52;1754578;80;21151;-76
2021/12/01 02:32:39;;;;;;;13.03;11.73;;;;;;;0.53;89.23;97583.78;1754662;80;21047;-76
2021/12/01 02:35:08;;;;;;;15.20;11.23;;;;;;;0.54;89.36;97579.55;1774955;80;21088;-77
2021/12/01 02:37:37;;;;;;;12.30;10.40;;;;;;;0.47;89.76;97582.08;1730755;80;20976;-74
2021/12/01 02:40:06;;;;;;;24.87;11.83;;;;;;;0.32;90.71;97579.44;1775044;80;21052;-78
2021/12/01 02:42:35;;;;;;;12.63;9.53;;;;;;;0.26;91.29;97572.44;1728126;80;21033;-76
2021/12/01 02:45:06;;;;;;;10.77;8.67;;;;;;;0.22;91.79;97572.63;1697996;84;21494;-80
2021/12/01 02:47:34;;;;;;;11.43;9.00;;;;;;;0.24;92.07;97578.47;1676101;84;21000;-79
2021/12/01 02:50:01;;;;;;;15.30;9.90;;;;;;;0.21;92.24;97577.63;1706857;83;20981;-78
2021/12/01 02:52:34;;;;;;;14.97;10.57;;;;;;;0.24;92.26;97581.66;1733476;82;21047;-75
2021/12/01 02:55:08;;;;;;;11.40;7.05;;;;;;;0.30;92.23;97577.53;1733991;82;21087;-79
2021/12/01 02:57:45;;;;;;;12.13;9.47;;;;;;;0.29;92.13;97569.83;1710551;82;21512;-78
2021/12/01 03:00:14;;;;;;;9.77;8.53;;;;;;;0.29;92.01;97568.51;1732067;82;21556;-78
2021/12/01 03:02:41;;;;;;;10.43;8.27;;;;;;;0.36;92.00;97562.58;1687084;82;21043;-77
2021/12/01 03:05:08;;;;;;;13.07;11.60;;;;;;;0.36;91.88;97567.34;1710431;82;21087;-79
2021/12/01 03:07:37;;;;;;;11.77;8.57;;;;;;;0.36;91.84;97566.54;1733624;82;21255;-79
2021/12/01 03:10:06;;;;;;;12.10;9.60;;;;;;;0.44;91.91;97583.34;1733126;82;20995;-79
2021/12/01 03:12:36;;;;;;;11.43;8.37;;;;;;;0.42;91.50;97565.09;1686604;82;20963;-79
2021/12/01 03:15:06;;;;;;;10.70;9.60;;;;;;;0.43;91.46;97565.34;1709950;82;21113;-78
2021/12/01 03:17:34;;;;;;;11.43;9.47;;;;;;;0.44;91.45;97566.95;1698530;83;21068;-78
2021/12/01 03:20:01;;;;;;;12.33;9.90;;;;;;;0.47;91.37;97573.62;1704461;82;21086;-78
2021/12/01 03:22:29;;;;;;;11.73;9.03;;;;;;;0.49;91.30;97566.76;1728979;82;21066;-78
2021/12/01 03:24:56;;;;;;;14.60;11.13;;;;;;;0.48;91.28;97560.66;1718892;82;21043;-81
2021/12/01 03:27:23;;;;;;;10.60;9.57;;;;;;;0.50;91.29;97565.21;1730360;82;21084;-77
2021/12/01 03:29:51;;;;;;;12.00;10.40;;;;;;;0.56;91.26;97568.75;1728464;83;21104;-79
2021/12/01 03:32:20;;;;;;;10.60;9.50;;;;;;;0.56;91.17;97564.78;1714146;83;21238;-81
2021/12/01 03:34:47;;;;;;;11.57;10.37;;;;;;;0.55;91.13;97560.53;1729422;82;21442;-82
2021/12/01 03:37:14;;;;;;;17.27;10.37;;;;;;;0.58;91.26;97563.49;1705943;84;21038;-85
2021/12/01 03:39:41;;;;;;;13.60;11.07;;;;;;;0.62;91.11;97562.00;1711572;82;21090;-90
2021/12/01 03:42:09;;;;;;;10.97;9.77;;;;;;;0.62;91.05;97565.16;1683540;82;21038;-80
2021/12/01 03:44:37;;;;;;;12.57;10.07;;;;;;;0.63;91.10;97564.91;1702554;82;21249;-75
2021/12/01 03:47:05;;;;;;;12.90;11.13;;;;;;;0.66;91.07;97559.16;1708885;82;21548;-92
2021/12/01 03:49:33;;;;;;;15.57;12.80;;;;;;;0.68;90.99;97554.93;1708199;82;21011;-87
2021/12/01 03:51:59;;;;;;;11.90;10.10;;;;;;;0.70;90.97;97554.99;1727587;82;21571;-93
2021/12/01 03:54:27;;;;;;;13.27;9.60;;;;;;;0.72;90.92;97544.95;1702662;83;21083;-90
2021/12/01 03:56:54;;;;;;;12.50;9.90;;;;;;;0.75;90.88;97555.59;1702816;84;21226;-91
2021/12/01 03:59:21;;;;;;;10.70;9.60;;;;;;;0.75;90.88;97548.47;1702967;84;21542;-92
2021/12/01 04:01:47;;;;;;;14.87;11.53;;;;;;;0.79;90.88;97554.06;1700964;82;21042;-93
2021/12/01 04:04:14;;;;;;;16.80;10.87;;;;;;;0.79;90.88;97548.78;1677685;84;21087;-89
2021/12/01 04:06:42;;;;;;;13.30;11.13;;;;;;;0.80;90.80;97553.84;1720479;82;20963;-90
2021/12/01 04:09:09;;;;;;;15.17;10.83;;;;;;;0.78;90.78;97549.81;1730219;82;21922;-91
2021/12/01 04:11:37;;;;;;;12.33;10.63;;;;;;;0.80;90.98;97553.84;1723169;82;21497;-89
2021/12/01 04:14:05;;;;;;;12.30;10.63;;;;;;;0.79;90.96;97545.61;1704146;82;21101;-91
2021/12/01 04:16:32;;;;;;;14.27;11.43;;;;;;;0.78;90.86;97544.52;1655653;84;21040;-92
2021/12/01 04:19:00;;;;;;;12.33;10.43;;;;;;;0.80;91.06;97544.58;1713188;82;21107;-84
2021/12/01 04:21:27;;;;;;;16.23;13.10;;;;;;;0.81;91.21;97552.00;1730887;82;21161;-82
2021/12/01 04:23:56;;;;;;;14.93;12.23;;;;;;;0.77;91.27;97542.39;1733653;82;21553;-84
2021/12/01 04:26:26;;;;;;;17.30;13.33;;;;;;;0.82;91.38;97548.28;1736089;82;20976;-85
2021/12/01 04:28:52;;;;;;;14.03;11.30;;;;;;;0.80;91.28;97536.64;1735928;82;21056;-86
2021/12/01 04:31:20;;;;;;;16.60;14.13;;;;;;;0.82;91.32;97548.28;1694101;82;21027;-86
2021/12/01 04:33:47;;;;;;;14.10;11.53;;;;;;;0.79;91.40;97539.52;1733867;82;21570;-83
2021/12/01 04:36:16;;;;;;;15.17;13.53;;;;;;;0.81;91.51;97544.87;1736013;82;21016;-85
2021/12/01 04:38:44;;;;;;;16.90;14.63;;;;;;;0.87;91.65;97537.79;1736472;82;20984;-84
2021/12/01 04:41:13;;;;;;;14.73;12.47;;;;;;;0.93;91.67;97537.35;1698534;82;21082;-87
2021/12/01 04:43:41;;;;;;;16.27;12.57;;;;;;;0.97;91.68;97533.98;1679903;83;21023;-73
2021/12/01 04:46:08;;;;;;;15.43;12.73;;;;;;;0.96;91.53;97538.98;1689649;85;21834;-85
2021/12/01 04:48:35;;;;;;;14.60;13.07;;;;;;;0.98;91.70;97544.86;1676971;85;20997;-84
2021/12/01 04:51:04;;;;;;;16.73;14.07;;;;;;;1.00;91.73;97537.48;1717547;82;21076;-79
2021/12/01 04:53:32;;;;;;;16.00;12.77;;;;;;;0.99;91.81;97541.69;1736089;82;21033;-79
2021/12/01 04:55:59;;;;;;;13.85;12.10;;;;;;;1.02;91.99;97542.52;1736008;82;21027;-80
2021/12/01 04:58:27;;;;;;;13.10;11.00;;;;;;;1.05;92.07;97536.24;1736221;82;21117;-79
2021/12/01 05:00:59;;;;;;;13.00;10.97;;;;;;;1.07;92.14;97536.79;1659607;83;20975;-91
2021/12/01 05:03:27;;;;;;;18.67;15.27;;;;;;;1.09;92.19;97534.71;1655922;85;20993;-88
2021/12/01 05:05:54;;;;;;;15.80;12.23;;;;;;;1.08;92.15;97537.59;1678169;83;21022;-89
2021/12/01 05:08:21;;;;;;;13.77;11.80;;;;;;;1.01;92.12;97537.74;1690594;85;21507;-92
2021/12/01 05:10:50;;;;;;;17.47;9.97;;;;;;;1.03;92.41;97545.45;1702954;82;21143;-79
2021/12/01 05:13:18;;;;;;;17.00;12.53;;;;;;;1.04;92.43;97539.93;1696383;82;21063;-84
2021/12/01 05:15:44;;;;;;;14.93;13.43;;;;;;;1.02;92.52;97543.84;1736202;82;20968;-82
2021/12/01 05:18:12;;;;;;;17.27;14.10;;;;;;;1.02;92.66;97542.00;1736314;82;22175;-85
2021/12/01 05:20:41;;;;;;;18.57;14.17;;;;;;;1.08;92.76;97546.86;1714373;82;20998;-84
2021/12/01 05:23:08;;;;;;;16.10;13.20;;;;;;;1.12;92.74;97549.30;1689122;83;21106;-82
2021/12/01 05:25:36;;;;;;;12.30;10.78;;;;;;;1.12;92.58;97557.23;1702223;82;21066;-83
2021/12/01 05:28:03;;;;;;;11.67;9.97;;;;;;;1.14;92.72;97561.78;1707142;82;20923;-80
2021/12/01 05:30:30;;;;;;;16.23;11.63;;;;;;;1.15;92.71;97566.81;1733768;82;21523;-84
2021/12/01 05:33:04;;;;;;;19.07;14.03;;;;;;;1.19;92.68;97567.16;1734436;82;21019;-82
2021/12/01 05:35:26;;;;;;;11.88;10.68;;;;;;;1.22;92.66;97560.04;1741783;81;22095;-82
2021/12/01 05:37:54;;;;;;;12.88;11.08;;;;;;;1.27;92.60;97562.24;1743124;81;21006;-85
2021/12/01 05:40:23;;;;;;;17.27;12.57;;;;;;;1.29;92.55;97563.34;1768362;81;22098;-84
2021/12/01 05:42:50;;;;;;;11.70;10.53;;;;;;;1.33;92.37;97579.53;1768769;81;21054;-81
2021/12/01 05:45:17;;;;;;;15.58;11.88;;;;;;;1.36;92.39;97567.13;1768573;80;21535;-80
2021/12/01 05:47:44;;;;;;;13.25;10.95;;;;;;;1.38;92.19;97572.47;1743678;81;21802;-79
2021/12/01 05:50:12;;;;;;;20.57;11.63;;;;;;;1.44;92.28;97566.73;1770575;81;21018;-81
2021/12/01 05:52:41;;;;;;;14.95;10.78;;;;;;;1.46;92.09;97574.70;1769740;80;20958;-80
2021/12/01 05:55:09;;;;;;;15.35;12.15;;;;;;;1.46;91.92;97579.99;1770240;81;21088;-83
2021/12/01 05:57:36;;;;;;;18.12;14.43;;;;;;;1.48;91.88;97585.86;1768809;80;21000;-79
2021/12/01 06:00:05;;;;;;;15.83;14.15;;;;;;;1.48;91.76;97589.03;1723277;81;21019;-82
2021/12/01 06:02:34;;;;;;;14.65;11.78;;;;;;;1.55;91.84;97591.77;1726330;82;20993;-81
2021/12/01 06:05:01;;;;;;;12.55;10.72;;;;;;;1.57;91.56;97592.34;1738076;81;20998;-80
2021/12/01 06:07:28;;;;;;;13.28;10.88;;;;;;;1.58;91.55;97601.88;1710361;82;21159;-80
2021/12/01 06:10:00;;;;;;;17.20;10.72;;;;;;;1.60;91.53;97601.12;1736512;81;21071;-80
2021/12/01 06:12:24;;;;;;;13.83;12.43;;;;;;;1.63;91.47;97605.14;1738690;81;21076;-78
2021/12/01 06:14:53;;;;;;;15.88;12.98;;;;;;;1.64;91.41;97614.15;1735124;82;20939;-80
2021/12/01 06:17:20;;;;;;;16.42;11.68;;;;;;;1.66;91.36;97613.39;1735660;82;21674;-77
2021/12/01 06:19:48;;;;;;;12.00;10.55;;;;;;;1.70;91.37;97611.05;1752643;81;21210;-82
2021/12/01 06:22:15;;;;;;;12.85;11.18;;;;;;;1.74;91.41;97622.77;1768438;81;21026;-86
2021/12/01 06:24:43;;;;;;;11.15;9.25;;;;;;;1.78;91.33;97618.58;1769954;81;21144;-89
2021/12/01 06:27:12;;;;;;;10.38;9.38;;;;;;;1.80;91.10;97615.69;1769555;81;21026;-93
2021/12/01 06:29:39;;;;;;;20.43;15.13;;;;;;;1.76;91.05;97620.69;1771149;81;21091;-89
2021/12/01 06:32:07;;;;;;;15.10;11.10;;;;;;;1.72;90.94;97614.27;1716330;82;21035;-91
2021/12/01 06:34:35;;;;;;;15.55;10.93;;;;;;;1.66;90.99;97617.89;1737371;82;20944;-91
2021/12/01 06:37:03;;;;;;;11.63;9.68;;;;;;;1.62;91.20;97614.13;1711768;82;21054;-90
2021/12/01 06:39:30;;;;;;;16.77;11.08;;;;;;;1.63;91.43;97628.44;1653522;85;21064;-90
2021/12/01 06:41:57;;;;;;;13.90;10.10;;;;;;;1.63;91.53;97629.76;1705914;84;20939;-90
2021/12/01 06:44:24;;;;;;;13.60;10.65;;;;;;;1.64;91.60;97640.64;1723779;82;20951;-80
2021/12/01 06:46:52;;;;;;;14.23;9.58;;;;;;;1.62;91.67;97637.45;1731826;82;21098;-80
2021/12/01 06:49:19;;;;;;;13.98;9.95;;;;;;;1.65;91.79;97650.20;1735205;82;21489;-81
2021/12/01 06:51:46;;;;;;;10.28;9.03;;;;;;;1.68;91.81;97652.35;1704805;84;22231;-80
2021/12/01 06:54:13;;;;;;;13.88;10.50;;;;;;;1.73;91.93;97645.80;1710156;82;21007;-86
2021/12/01 06:56:40;;;;;;;15.53;11.75;;;;;;;1.78;92.13;97649.56;1711292;82;21516;-91
2021/12/01 06:59:07;;;;;;;11.95;10.75;;;;;;;1.84;92.05;97652.58;1737138;81;21074;-92
2021/12/01 07:01:34;;;;;;;14.20;11.00;;;;;;;1.85;91.89;97658.97;1749394;81;20991;-92
2021/12/01 07:04:02;;;;;;;12.50;10.30;;;;;;;1.86;91.81;97669.05;1747342;81;21030;-90
2021/12/01 07:06:29;;;;;;;18.77;12.68;;;;;;;1.87;91.76;97666.13;1760515;81;21050;-95
2021/12/01 07:08:59;;;;;;;14.83;10.28;;;;;;;1.86;91.66;97670.38;1756096;81;21060;-73
2021/12/01 07:11:26;;;;;;;15.48;11.03;;;;;;;1.89;91.88;97678.63;1768824;80;21031;-74
2021/12/01 07:13:53;;;;;;;14.30;10.85;;;;;;;1.93;91.90;97674.45;1768936;81;21087;-74
2021/12/01 07:16:20;;;;;;;12.18;9.33;;;;;;;1.96;91.79;97681.93;1757366;81;21038;-75
2021/12/01 07:18:47;;;;;;;13.28;10.03;;;;;;;1.98;91.71;97681.14;1710015;82;21080;-72
2021/12/01 07:21:14;;;;;;;12.53;8.73;;;;;;;1.98;91.57;97682.98;1735251;82;21015;-78
2021/12/01 07:23:41;;;;;;;11.73;10.55;;;;;;;1.98;91.58;97690.42;1710058;82;21540;-81
2021/12/01 07:26:08;;;;;;;10.03;8.58;;;;;;;1.99;91.51;97679.30;1711522;81;21202;-80
2021/12/01 07:28:36;;;;;;;11.20;9.75;;;;;;;2.00;91.50;97692.31;1736398;81;21606;-81
2021/12/01 07:31:03;;;;;;;11.08;8.78;;;;;;;2.03;91.49;97689.69;1737500;81;21084;-78
2021/12/01 07:33:30;;;;;;;17.52;9.88;;;;;;;2.02;91.40;97702.14;1759061;81;21002;-78
2021/12/01 07:35:57;;;;;;;9.48;8.58;;;;;;;1.99;91.18;97699.18;1758958;81;21058;-76
2021/12/01 07:38:25;;;;;;;9.40;8.20;;;;;;;1.98;91.28;97696.23;1760403;81;21098;-76
2021/12/01 07:40:52;;;;;;;10.63;9.08;;;;;;;1.96;91.28;97699.67;1760486;81;21013;-76
2021/12/01 07:43:18;;;;;;;9.95;8.23;;;;;;;1.95;91.34;97702.84;1731655;81;20995;-76
2021/12/01 07:45:45;;;;;;;11.10;9.88;;;;;;;1.96;91.51;97699.16;1681993;83;21028;-77
2021/12/01 07:48:12;;;;;;;11.40;8.28;;;;;;;2.00;91.52;97700.79;1735659;81;20959;-76
2021/12/01 07:50:40;;;;;;;10.03;8.85;;;;;;;2.00;91.38;97696.81;1758978;81;21867;-78
2021/12/01 07:53:07;;;;;;;11.78;9.33;;;;;;;2.00;91.43;97702.11;1759312;81;21129;-77
2021/12/01 07:55:35;;;;;;;10.65;9.50;;;;;;;1.99;91.38;97709.78;1750696;81;21027;-78
2021/12/01 07:58:03;;;;;;;10.98;9.73;;;;;;;2.00;91.37;97714.84;1725929;83;21496;-77
2021/12/01 08:00:31;;;;;;;11.85;9.15;;;;;;;2.02;91.44;97711.41;1705026;83;21012;-76
2021/12/01 08:02:58;;;;;;;11.55;7.85;;;;;;;2.06;91.49;97711.75;1726054;83;21823;-84
2021/12/01 08:05:25;;;;;;;13.13;11.20;;;;;;;2.11;91.43;97721.11;1758700;81;21575;-82
2021/12/01 08:07:55;;;;;;;12.33;9.68;;;;;;;2.11;91.23;97727.73;1737447;81;21014;-82
2021/12/01 08:10:22;;;;;;;9.90;8.65;;;;;;;2.10;91.07;97724.80;1708669;81;21016;-79
2021/12/01 08:12:51;;;;;;;9.05;8.20;;;;;;;2.06;90.98;97730.31;1726373;83;21038;-78
2021/12/01 08:15:18;;;;;;;10.45;9.35;;;;;;;2.07;91.07;97734.02;1734748;81;21068;-81
2021/12/01 08:17:46;;;;;;;14.33;10.70;;;;;;;2.08;91.12;97727.69;1766366;81;21566;-78
2021/12/01 08:20:13;;;;;;;11.83;10.48;;;;;;;2.11;91.16;97744.97;1766539;81;21084;-78
2021/12/01 08:22:42;;;;;;;10.95;9.78;;;;;;;2.11;91.15;97744.42;1766828;81;21001;-79
2021/12/01 08:25:09;;;;;;;11.50;8.88;;;;;;;2.08;91.08;97750.22;1768077;80;21022;-80
2021/12/01 08:27:36;;;;;;;12.07;10.80;;;;;;;2.06;91.17;97744.89;1719004;81;21044;-79
2021/12/01 08:30:05;;;;;;;10.48;8.90;;;;;;;2.08;91.25;97755.52;1758013;80;21030;-79
2021/12/01 08:32:32;;;;;;;12.70;9.58;;;;;;;2.10;91.26;97757.94;1738120;81;20957;-81
2021/12/01 08:35:00;;;;;;;12.65;11.22;;;;;;;2.12;91.35;97769.08;1761660;81;21051;-77
2021/12/01 08:37:27;;;;;;;13.13;11.65;;;;;;;2.17;91.34;97773.95;1740380;81;21581;-76
2021/12/01 08:39:54;;;;;;;11.53;10.38;;;;;;;2.21;91.21;97772.15;1771483;81;21515;-78
2021/12/01 08:42:23;;;;;;;12.40;11.20;;;;;;;2.22;91.06;97783.82;1768833;81;21618;-75
2021/12/01 08:44:51;;;;;;;14.75;11.65;;;;;;;2.21;90.83;97785.41;1744637;81;21500;-83
2021/12/01 08:47:20;;;;;;;15.03;11.48;;;;;;;2.15;90.74;97791.16;1765153;81;21015;-78
2021/12/01 08:49:47;;;;;;;12.37;10.88;;;;;;;2.11;90.74;97791.36;1769113;81;21047;-80
2021/12/01 08:52:14;;;;;;;12.40;11.10;;;;;;;2.10;90.87;97789.23;1743177;81;21775;-79
2021/12/01 08:54:41;;;;;;;9.95;8.73;;;;;;;2.11;90.98;97789.48;1724381;81;22075;-80
2021/12/01 08:57:08;;;;;;;12.20;9.23;;;;;;;2.16;91.11;97796.20;1742903;81;21018;-79
2021/12/01 08:59:36;;;;;;;11.03;9.90;;;;;;;2.18;90.71;97791.98;1771173;81;20958;-81
2021/12/01 09:02:04;;;;;;;10.68;9.35;;;;;;;2.13;90.63;97794.56;1771321;81;21078;-79
2021/12/01 09:04:31;;;;;;;13.25;10.40;;;;;;;2.10;90.69;97803.01;1698578;82;21096;-76
2021/12/01 09:06:58;;;;;;;10.85;9.03;;;;;;;2.08;90.69;97803.23;1737322;81;21523;-76
2021/12/01 09:09:26;;;;;;;11.10;8.53;;;;;;;2.12;90.86;97791.09;1750972;81;21514;-78
2021/12/01 09:11:53;;;;;;;14.18;10.78;;;;;;;2.16;90.85;97789.56;1771215;81;21097;-78
2021/12/01 09:14:21;;;;;;;9.80;8.80;;;;;;;2.18;90.64;97791.98;1741081;81;21133;-78
2021/12/01 09:16:48;;;;;;;11.55;9.50;;;;;;;2.21;90.56;97790.72;1743116;81;22198;-85
2021/12/01 09:19:15;;;;;;;12.33;10.50;;;;;;;2.25;90.48;97803.25;1742956;81;21053;-78
2021/12/01 09:21:42;;;;;;;10.98;9.50;;;;;;;2.27;90.38;97810.94;1771297;81;21045;-77
2021/12/01 09:24:09;;;;;;;11.45;9.33;;;;;;;2.28;90.20;97816.01;1769159;81;21104;-77
2021/12/01 09:26:36;;;;;;;11.97;9.60;;;;;;;2.29;90.13;97823.44;1718206;81;21084;-80
2021/12/01 09:29:03;;;;;;;11.08;9.40;;;;;;;2.30;90.14;97837.80;1769154;81;21107;-77
2021/12/01 09:31:32;;;;;;;12.55;9.10;;;;;;;2.31;90.13;97835.40;1742872;81;21000;-76
2021/12/01 09:33:59;;;;;;;9.08;8.15;;;;;;;2.31;89.90;97829.29;1714885;81;21562;-76
2021/12/01 09:36:25;;;;;;;11.68;10.05;;;;;;;2.33;89.90;97837.83;1743280;81;21011;-78
2021/12/01 09:38:52;;;;;;;10.40;8.68;;;;;;;2.34;89.87;97842.09;1741934;81;21031;-79
2021/12/01 09:41:19;;;;;;;7.65;6.50;;;;;;;2.34;89.68;97853.50;1718596;81;21555;-78
2021/12/01 09:43:46;;;;;;;8.38;7.03;;;;;;;2.29;88.67;97853.42;1717146;81;20990;-76
2021/12/01 09:46:13;;;;;;;7.20;6.42;;;;;;;2.28;88.61;97854.98;1771471;81;21045;-76
2021/12/01 09:48:41;;;;;;;9.23;8.25;;;;;;;2.27;88.37;97874.58;1737652;82;21024;-75
2021/12/01 09:51:09;;;;;;;8.83;7.90;;;;;;;2.25;88.25;97870.06;1683511;82;21045;-77
2021/12/01 09:53:36;;;;;;;8.53;7.65;;;;;;;2.25;88.33;97868.22;1768393;81;21563;-77
2021/12/01 09:56:03;;;;;;;8.80;7.50;;;;;;;2.23;88.29;97871.62;1768493;81;20990;-75
2021/12/01 09:58:32;;;;;;;8.40;6.75;;;;;;;2.22;88.13;97883.78;1768143;81;21527;-74
2021/12/01 10:01:07;;;;;;;9.83;7.08;;;;;;;2.19;88.17;97885.08;1768758;81;20950;-76
2021/12/01 10:03:35;;;;;;;10.72;8.55;;;;;;;2.16;88.05;97883.70;1768493;81;21051;-74
2021/12/01 10:06:11;;;;;;;9.15;7.67;;;;;;;2.15;88.13;97887.94;1737384;82;21953;-75
2021/12/01 10:08:46;;;;;;;8.18;7.10;;;;;;;2.14;88.03;97917.63;1736966;82;20995;-74
2021/12/01 10:11:17;;;;;;;8.50;7.60;;;;;;;2.15;87.98;97894.56;1710959;83;21726;-74
2021/12/01 10:13:48;;;;;;;8.23;7.42;;;;;;;2.12;87.67;97908.28;1721625;83;21008;-78
2021/12/01 10:16:18;;;;;;;8.13;6.95;;;;;;;2.11;87.47;97913.32;1696645;83;21148;-75
2021/12/01 10:18:49;;;;;;;7.37;6.67;;;;;;;2.11;87.40;97914.10;1707753;82;21256;-74
2021/12/01 10:21:31;;;;;;;;;;;;;;;2.12;87.52;97922.34;1684135;84;20952;-76
2021/12/01 10:24:01;;;;;;;8.23;7.40;;;;;;;2.12;87.51;97921.02;1706650;83;20159;-76
2021/12/01 10:26:32;;;;;;;12.05;8.65;;;;;;;2.12;87.43;97918.36;1695606;83;21034;-79
2021/12/01 10:29:04;;;;;;;8.20;6.72;;;;;;;2.15;87.51;97928.52;1696691;83;21053;-76
2021/12/01 10:31:51;;;;;;;10.82;8.78;;;;;;;2.18;87.27;97942.61;1650979;85;21672;-78
2021/12/01 10:34:35;;;;;;;8.73;6.87;;;;;;;2.21;87.16;97942.64;1696207;84;21083;-76
2021/12/01 10:37:23;;;;;;;8.53;7.62;;;;;;;2.19;86.95;97942.09;1745348;81;21099;-77
2021/12/01 10:40:07;;;;;;;8.33;7.42;;;;;;;2.15;86.98;97943.09;1744689;81;21101;-76
2021/12/01 10:43:00;;;;;;;8.28;7.47;;;;;;;2.17;87.02;97938.86;1752321;81;20995;-75
2021/12/01 10:45:49;;;;;;;8.55;7.08;;;;;;;2.16;87.07;97943.36;1737403;81;21094;-81
2021/12/01 10:48:24;;;;;;;7.87;7.17;;;;;;;2.16;87.17;97942.55;1741852;81;20968;-78
2021/12/01 10:50:52;;;;;;;6.83;6.22;;;;;;;2.17;87.16;97968.84;1751054;81;21544;-76
2021/12/01 10:53:22;;;;;;;7.28;6.03;;;;;;;2.13;87.21;97963.73;1730516;81;21168;-77
2021/12/01 10:55:55;;;;;;;6.75;6.05;;;;;;;2.12;87.37;97967.94;1753010;81;20987;-89
2021/12/01 10:58:22;;;;;;;6.08;5.47;;;;;;;2.09;87.87;97981.67;1746673;81;21759;-78
2021/12/01 11:00:51;;;;;;;7.97;7.12;;;;;;;2.09;87.87;97981.67;1735382;80;20986;-78
2021/12/01 11:03:25;;;;;;;8.40;7.50;;;;;;;2.05;87.75;97969.94;1752930;81;21509;-77
2021/12/01 11:05:55;;;;;;;6.58;5.95;;;;;;;2.03;87.95;97973.34;1744876;81;21055;-77
2021/12/01 11:08:29;;;;;;;6.87;6.17;;;;;;;2.01;87.98;97974.11;1693585;84;21056;-77
2021/12/01 11:11:08;;;;;;;7.45;6.62;;;;;;;2.00;88.18;97984.42;1690564;84;21142;-76
2021/12/01 11:13:37;;;;;;;7.45;6.72;;;;;;;2.00;88.32;97980.45;1698119;84;21064;-73
2021/12/01 11:16:10;;;;;;;7.97;6.62;;;;;;;2.02;88.42;97973.05;1753122;81;21007;-74
2021/12/01 11:18:43;;;;;;;9.30;8.00;;;;;;;2.04;88.63;97980.26;1753013;81;21110;-75
2021/12/01 11:21:13;;;;;;;7.90;7.03;;;;;;;2.05;88.69;97982.68;1745858;81;21421;-75
2021/12/01 11:23:59;;;;;;;6.95;6.35;;;;;;;2.03;88.65;97994.03;1731241;81;21047;-76
2021/12/01 11:26:29;;;;;;;7.05;6.28;;;;;;;2.01;88.20;97986.05;1755686;80;21547;-74
2021/12/01 11:29:02;;;;;;;7.53;6.78;;;;;;;2.01;88.23;97988.17;1759059;81;20999;-75
2021/12/01 11:31:37;;;;;;;7.65;6.65;;;;;;;2.05;88.29;97994.61;1755374;81;21066;-75
2021/12/01 11:34:08;;;;;;;8.00;7.20;;;;;;;2.07;88.09;97991.19;1758796;81;21105;-75
2021/12/01 11:36:40;;;;;;;7.90;7.15;;;;;;;2.10;88.07;97986.75;1737763;81;21017;-73
2021/12/01 11:39:11;;;;;;;7.30;6.58;;;;;;;2.13;88.03;97996.06;1759247;81;21049;-73
2021/12/01 11:41:42;;;;;;;6.95;5.97;;;;;;;2.15;87.57;97992.15;1728941;81;20987;-76
2021/12/01 11:44:11;;;;;;;9.28;6.67;;;;;;;2.16;87.39;98006.19;1733308;82;21014;-77